sensor_id;sensor_type;location;lat;lon;timestamp;P1;durP1;ratioP1;P2;durP2;ratioP2
22883;SDS011;13386;24.786;110.488;2023-04-24T00:00:55;10.00;;;3.80;;
22883;SDS011;13386;24.786;110.488;2023-04-24T00:03:25;9.27;;;3.38;;
22883;SDS011;13386;24.786;110.488;2023-04-24T00:05:56;7.53;;;3.00;;
22883;SDS011;13386;24.786;110.488;2023-04-24T00:08:26;8.50;;;3.53;;
22883;SDS011;13386;24.786;110.488;2023-04-24T00:10:56;8.55;;;3.35;;
22883;SDS011;13386;24.786;110.488;2023-04-24T00:13:28;11.23;;;3.40;;
22883;SDS011;13386;24.786;110.488;2023-04-24T00:15:58;7.70;;;2.92;;
22883;SDS011;13386;24.786;110.488;2023-04-24T00:18:28;10.35;;;3.40;;
22883;SDS011;13386;24.786;110.488;2023-04-24T00:20:58;10.70;;;3.42;;
22883;SDS011;13386;24.786;110.488;2023-04-24T00:23:29;8.27;;;2.90;;
22883;SDS011;13386;24.786;110.488;2023-04-24T00:26:00;9.35;;;3.65;;
22883;SDS011;13386;24.786;110.488;2023-04-24T00:28:32;8.35;;;3.15;;
22883;SDS011;13386;24.786;110.488;2023-04-24T00:31:04;8.43;;;2.95;;
22883;SDS011;13386;24.786;110.488;2023-04-24T00:33:36;11.90;;;3.08;;
22883;SDS011;13386;24.786;110.488;2023-04-24T00:36:07;11.45;;;3.35;;
22883;SDS011;13386;24.786;110.488;2023-04-24T00:38:37;8.48;;;3.40;;
22883;SDS011;13386;24.786;110.488;2023-04-24T00:41:07;10.35;;;3.38;;
22883;SDS011;13386;24.786;110.488;2023-04-24T00:43:39;8.93;;;3.22;;
22883;SDS011;13386;24.786;110.488;2023-04-24T00:46:09;15.35;;;3.58;;
22883;SDS011;13386;24.786;110.488;2023-04-24T00:48:40;10.50;;;3.35;;
22883;SDS011;13386;24.786;110.488;2023-04-24T00:51:13;10.38;;;4.10;;
22883;SDS011;13386;24.786;110.488;2023-04-24T00:53:43;7.93;;;3.03;;
22883;SDS011;13386;24.786;110.488;2023-04-24T00:56:13;8.10;;;3.50;;
22883;SDS011;13386;24.786;110.488;2023-04-24T00:58:45;7.80;;;3.22;;
22883;SDS011;13386;24.786;110.488;2023-04-24T01:01:15;9.98;;;4.20;;
22883;SDS011;13386;24.786;110.488;2023-04-24T01:03:47;10.77;;;4.03;;
22883;SDS011;13386;24.786;110.488;2023-04-24T01:06:18;10.32;;;4.22;;
22883;SDS011;13386;24.786;110.488;2023-04-24T01:08:49;8.20;;;3.45;;
22883;SDS011;13386;24.786;110.488;2023-04-24T01:11:21;10.63;;;3.65;;
22883;SDS011;13386;24.786;110.488;2023-04-24T01:13:53;9.88;;;3.40;;
22883;SDS011;13386;24.786;110.488;2023-04-24T01:16:23;9.65;;;3.50;;
22883;SDS011;13386;24.786;110.488;2023-04-24T01:18:54;11.43;;;4.05;;
22883;SDS011;13386;24.786;110.488;2023-04-24T01:21:24;10.93;;;4.18;;
22883;SDS011;13386;24.786;110.488;2023-04-24T01:23:59;9.20;;;3.33;;
22883;SDS011;13386;24.786;110.488;2023-04-24T01:26:29;12.15;;;3.83;;
22883;SDS011;13386;24.786;110.488;2023-04-24T01:28:59;9.63;;;3.55;;
22883;SDS011;13386;24.786;110.488;2023-04-24T01:31:29;11.48;;;4.10;;
22883;SDS011;13386;24.786;110.488;2023-04-24T01:34:02;10.70;;;3.70;;
22883;SDS011;13386;24.786;110.488;2023-04-24T01:36:33;8.90;;;4.00;;
22883;SDS011;13386;24.786;110.488;2023-04-24T01:39:06;8.43;;;3.55;;
22883;SDS011;13386;24.786;110.488;2023-04-24T01:41:36;15.30;;;4.57;;
22883;SDS011;13386;24.786;110.488;2023-04-24T01:44:06;12.50;;;3.85;;
22883;SDS011;13386;24.786;110.488;2023-04-24T01:46:37;10.10;;;3.75;;
22883;SDS011;13386;24.786;110.488;2023-04-24T01:49:07;21.83;;;5.25;;
22883;SDS011;13386;24.786;110.488;2023-04-24T01:51:38;12.10;;;4.28;;
22883;SDS011;13386;24.786;110.488;2023-04-24T01:54:10;12.38;;;4.57;;
22883;SDS011;13386;24.786;110.488;2023-04-24T01:56:43;9.02;;;3.83;;
22883;SDS011;13386;24.786;110.488;2023-04-24T01:59:13;14.90;;;4.88;;
22883;SDS011;13386;24.786;110.488;2023-04-24T02:01:44;16.73;;;5.00;;
22883;SDS011;13386;24.786;110.488;2023-04-24T02:04:16;9.77;;;3.92;;
22883;SDS011;13386;24.786;110.488;2023-04-24T02:06:47;16.70;;;5.35;;
22883;SDS011;13386;24.786;110.488;2023-04-24T02:09:19;16.40;;;4.50;;
22883;SDS011;13386;24.786;110.488;2023-04-24T02:11:50;15.43;;;5.00;;
22883;SDS011;13386;24.786;110.488;2023-04-24T02:14:20;15.40;;;4.43;;
22883;SDS011;13386;24.786;110.488;2023-04-24T02:16:51;8.90;;;3.70;;
22883;SDS011;13386;24.786;110.488;2023-04-24T02:19:22;15.68;;;4.40;;
22883;SDS011;13386;24.786;110.488;2023-04-24T02:21:52;14.75;;;5.00;;
22883;SDS011;13386;24.786;110.488;2023-04-24T02:24:25;10.82;;;4.22;;
22883;SDS011;13386;24.786;110.488;2023-04-24T02:26:55;13.48;;;4.50;;
22883;SDS011;13386;24.786;110.488;2023-04-24T02:29:25;18.90;;;5.13;;
22883;SDS011;13386;24.786;110.488;2023-04-24T02:31:55;18.77;;;4.60;;
22883;SDS011;13386;24.786;110.488;2023-04-24T02:34:27;13.77;;;4.80;;
22883;SDS011;13386;24.786;110.488;2023-04-24T02:37:04;9.73;;;3.83;;
22883;SDS011;13386;24.786;110.488;2023-04-24T02:39:36;15.25;;;4.88;;
22883;SDS011;13386;24.786;110.488;2023-04-24T02:42:08;18.50;;;4.47;;
22883;SDS011;13386;24.786;110.488;2023-04-24T02:44:38;12.10;;;4.68;;
22883;SDS011;13386;24.786;110.488;2023-04-24T02:47:08;12.38;;;4.22;;
22883;SDS011;13386;24.786;110.488;2023-04-24T02:49:38;10.48;;;4.00;;
22883;SDS011;13386;24.786;110.488;2023-04-24T02:52:08;12.90;;;3.90;;
22883;SDS011;13386;24.786;110.488;2023-04-24T02:54:40;10.15;;;3.90;;
22883;SDS011;13386;24.786;110.488;2023-04-24T02:57:11;13.63;;;4.18;;
22883;SDS011;13386;24.786;110.488;2023-04-24T02:59:44;9.90;;;4.07;;
22883;SDS011;13386;24.786;110.488;2023-04-24T03:02:15;12.82;;;4.05;;
22883;SDS011;13386;24.786;110.488;2023-04-24T03:04:45;13.85;;;3.92;;
22883;SDS011;13386;24.786;110.488;2023-04-24T03:07:16;11.75;;;4.22;;
22883;SDS011;13386;24.786;110.488;2023-04-24T03:09:49;9.40;;;3.90;;
22883;SDS011;13386;24.786;110.488;2023-04-24T03:12:22;10.57;;;3.92;;
22883;SDS011;13386;24.786;110.488;2023-04-24T03:14:52;13.43;;;3.70;;
22883;SDS011;13386;24.786;110.488;2023-04-24T03:17:22;19.13;;;4.85;;
22883;SDS011;13386;24.786;110.488;2023-04-24T03:19:52;10.70;;;4.30;;
22883;SDS011;13386;24.786;110.488;2023-04-24T03:22:22;14.70;;;3.95;;
22883;SDS011;13386;24.786;110.488;2023-04-24T03:24:54;11.35;;;3.97;;
22883;SDS011;13386;24.786;110.488;2023-04-24T03:27:25;13.25;;;4.28;;
22883;SDS011;13386;24.786;110.488;2023-04-24T03:30:00;11.48;;;4.20;;
22883;SDS011;13386;24.786;110.488;2023-04-24T03:32:40;11.48;;;4.18;;
22883;SDS011;13386;24.786;110.488;2023-04-24T03:35:13;12.82;;;3.92;;
22883;SDS011;13386;24.786;110.488;2023-04-24T03:37:44;10.23;;;4.22;;
22883;SDS011;13386;24.786;110.488;2023-04-24T03:40:49;11.63;;;3.67;;
22883;SDS011;13386;24.786;110.488;2023-04-24T03:43:34;8.88;;;3.65;;
22883;SDS011;13386;24.786;110.488;2023-04-24T03:46:05;9.93;;;3.85;;
22883;SDS011;13386;24.786;110.488;2023-04-24T03:48:40;10.23;;;3.70;;
22883;SDS011;13386;24.786;110.488;2023-04-24T03:51:11;11.57;;;3.75;;
22883;SDS011;13386;24.786;110.488;2023-04-24T03:53:44;10.85;;;3.60;;
22883;SDS011;13386;24.786;110.488;2023-04-24T03:56:21;13.00;;;3.78;;
22883;SDS011;13386;24.786;110.488;2023-04-24T03:58:52;9.30;;;3.58;;
22883;SDS011;13386;24.786;110.488;2023-04-24T04:01:23;12.32;;;3.72;;
22883;SDS011;13386;24.786;110.488;2023-04-24T04:04:03;10.65;;;3.55;;
22883;SDS011;13386;24.786;110.488;2023-04-24T04:06:33;8.77;;;3.45;;
22883;SDS011;13386;24.786;110.488;2023-04-24T04:09:03;15.45;;;4.30;;
22883;SDS011;13386;24.786;110.488;2023-04-24T04:11:35;12.20;;;4.32;;
22883;SDS011;13386;24.786;110.488;2023-04-24T04:14:05;9.98;;;3.90;;
22883;SDS011;13386;24.786;110.488;2023-04-24T04:16:41;21.90;;;4.75;;
22883;SDS011;13386;24.786;110.488;2023-04-24T04:19:12;8.77;;;3.63;;
22883;SDS011;13386;24.786;110.488;2023-04-24T04:21:43;14.35;;;3.80;;
22883;SDS011;13386;24.786;110.488;2023-04-24T04:24:29;9.60;;;3.67;;
22883;SDS011;13386;24.786;110.488;2023-04-24T04:27:01;8.48;;;3.00;;
22883;SDS011;13386;24.786;110.488;2023-04-24T04:29:39;7.40;;;2.97;;
22883;SDS011;13386;24.786;110.488;2023-04-24T04:32:11;10.45;;;3.40;;
22883;SDS011;13386;24.786;110.488;2023-04-24T04:34:42;7.93;;;2.92;;
22883;SDS011;13386;24.786;110.488;2023-04-24T04:37:16;16.00;;;4.10;;
22883;SDS011;13386;24.786;110.488;2023-04-24T04:40:10;8.45;;;3.08;;
22883;SDS011;13386;24.786;110.488;2023-04-24T04:42:51;7.80;;;3.10;;
22883;SDS011;13386;24.786;110.488;2023-04-24T04:45:29;7.50;;;3.53;;
22883;SDS011;13386;24.786;110.488;2023-04-24T04:48:30;10.15;;;3.25;;
22883;SDS011;13386;24.786;110.488;2023-04-24T04:51:02;8.50;;;3.35;;
22883;SDS011;13386;24.786;110.488;2023-04-24T04:53:33;7.45;;;3.33;;
22883;SDS011;13386;24.786;110.488;2023-04-24T04:56:04;6.78;;;3.20;;
22883;SDS011;13386;24.786;110.488;2023-04-24T04:58:46;8.32;;;3.15;;
22883;SDS011;13386;24.786;110.488;2023-04-24T05:01:17;8.93;;;3.20;;
22883;SDS011;13386;24.786;110.488;2023-04-24T05:03:50;8.95;;;3.67;;
22883;SDS011;13386;24.786;110.488;2023-04-24T05:06:25;7.25;;;3.10;;
22883;SDS011;13386;24.786;110.488;2023-04-24T05:08:56;9.30;;;3.50;;
22883;SDS011;13386;24.786;110.488;2023-04-24T05:11:46;10.77;;;3.60;;
22883;SDS011;13386;24.786;110.488;2023-04-24T05:14:20;9.68;;;3.70;;
22883;SDS011;13386;24.786;110.488;2023-04-24T05:16:50;10.30;;;3.58;;
22883;SDS011;13386;24.786;110.488;2023-04-24T05:19:22;9.77;;;3.65;;
22883;SDS011;13386;24.786;110.488;2023-04-24T05:21:54;8.50;;;3.50;;
22883;SDS011;13386;24.786;110.488;2023-04-24T05:24:25;11.48;;;3.63;;
22883;SDS011;13386;24.786;110.488;2023-04-24T05:26:58;7.28;;;3.30;;
22883;SDS011;13386;24.786;110.488;2023-04-24T05:29:36;8.63;;;3.50;;
22883;SDS011;13386;24.786;110.488;2023-04-24T05:32:08;9.02;;;3.85;;
22883;SDS011;13386;24.786;110.488;2023-04-24T05:34:38;9.68;;;3.30;;
22883;SDS011;13386;24.786;110.488;2023-04-24T05:37:10;8.95;;;3.50;;
22883;SDS011;13386;24.786;110.488;2023-04-24T05:39:49;8.68;;;3.67;;
22883;SDS011;13386;24.786;110.488;2023-04-24T05:42:20;7.93;;;3.40;;
22883;SDS011;13386;24.786;110.488;2023-04-24T05:44:53;8.05;;;3.50;;
22883;SDS011;13386;24.786;110.488;2023-04-24T05:47:23;9.88;;;3.65;;
22883;SDS011;13386;24.786;110.488;2023-04-24T05:49:55;9.02;;;3.65;;
22883;SDS011;13386;24.786;110.488;2023-04-24T05:52:28;8.65;;;3.30;;
22883;SDS011;13386;24.786;110.488;2023-04-24T05:54:59;10.20;;;3.75;;
22883;SDS011;13386;24.786;110.488;2023-04-24T05:57:35;8.75;;;3.03;;
22883;SDS011;13386;24.786;110.488;2023-04-24T06:00:09;8.05;;;3.50;;
22883;SDS011;13386;24.786;110.488;2023-04-24T06:02:45;8.80;;;3.30;;
22883;SDS011;13386;24.786;110.488;2023-04-24T06:05:15;10.63;;;3.90;;
22883;SDS011;13386;24.786;110.488;2023-04-24T06:07:47;9.15;;;3.58;;
22883;SDS011;13386;24.786;110.488;2023-04-24T06:10:21;12.82;;;3.60;;
22883;SDS011;13386;24.786;110.488;2023-04-24T06:12:52;11.60;;;3.85;;
22883;SDS011;13386;24.786;110.488;2023-04-24T06:18:03;9.07;;;3.95;;
22883;SDS011;13386;24.786;110.488;2023-04-24T06:20:36;10.15;;;4.00;;
22883;SDS011;13386;24.786;110.488;2023-04-24T06:23:09;9.68;;;3.70;;
22883;SDS011;13386;24.786;110.488;2023-04-24T06:25:40;13.98;;;4.00;;
22883;SDS011;13386;24.786;110.488;2023-04-24T06:28:12;8.40;;;3.95;;
22883;SDS011;13386;24.786;110.488;2023-04-24T06:30:45;11.95;;;4.40;;
22883;SDS011;13386;24.786;110.488;2023-04-24T06:33:17;9.32;;;3.75;;
22883;SDS011;13386;24.786;110.488;2023-04-24T06:35:47;8.75;;;4.03;;
22883;SDS011;13386;24.786;110.488;2023-04-24T06:38:17;12.88;;;3.75;;
22883;SDS011;13386;24.786;110.488;2023-04-24T06:40:47;9.57;;;3.90;;
22883;SDS011;13386;24.786;110.488;2023-04-24T06:43:17;12.85;;;4.00;;
22883;SDS011;13386;24.786;110.488;2023-04-24T06:45:57;10.43;;;4.43;;
22883;SDS011;13386;24.786;110.488;2023-04-24T06:48:32;9.55;;;4.22;;
22883;SDS011;13386;24.786;110.488;2023-04-24T06:51:02;12.05;;;3.78;;
22883;SDS011;13386;24.786;110.488;2023-04-24T06:53:32;10.90;;;4.28;;
22883;SDS011;13386;24.786;110.488;2023-04-24T06:56:03;10.98;;;4.35;;
22883;SDS011;13386;24.786;110.488;2023-04-24T06:58:33;10.52;;;4.10;;
22883;SDS011;13386;24.786;110.488;2023-04-24T07:01:07;12.77;;;4.13;;
22883;SDS011;13386;24.786;110.488;2023-04-24T07:03:47;9.80;;;4.13;;
22883;SDS011;13386;24.786;110.488;2023-04-24T07:06:19;11.82;;;4.00;;
22883;SDS011;13386;24.786;110.488;2023-04-24T07:08:51;12.82;;;4.22;;
22883;SDS011;13386;24.786;110.488;2023-04-24T07:11:23;10.68;;;3.88;;
22883;SDS011;13386;24.786;110.488;2023-04-24T07:13:56;12.20;;;4.97;;
22883;SDS011;13386;24.786;110.488;2023-04-24T07:16:26;10.57;;;4.38;;
22883;SDS011;13386;24.786;110.488;2023-04-24T07:19:06;12.93;;;4.53;;
22883;SDS011;13386;24.786;110.488;2023-04-24T07:21:37;10.32;;;4.20;;
22883;SDS011;13386;24.786;110.488;2023-04-24T07:24:07;10.30;;;3.85;;
22883;SDS011;13386;24.786;110.488;2023-04-24T07:26:38;10.00;;;4.78;;
22883;SDS011;13386;24.786;110.488;2023-04-24T07:29:10;11.20;;;4.75;;
22883;SDS011;13386;24.786;110.488;2023-04-24T07:31:40;13.90;;;4.85;;
22883;SDS011;13386;24.786;110.488;2023-04-24T07:34:12;10.20;;;4.30;;
22883;SDS011;13386;24.786;110.488;2023-04-24T07:36:43;11.88;;;4.68;;
22883;SDS011;13386;24.786;110.488;2023-04-24T07:39:14;13.60;;;4.30;;
22883;SDS011;13386;24.786;110.488;2023-04-24T07:41:44;12.45;;;4.90;;
22883;SDS011;13386;24.786;110.488;2023-04-24T07:44:16;10.02;;;4.03;;
22883;SDS011;13386;24.786;110.488;2023-04-24T07:46:47;18.38;;;4.55;;
22883;SDS011;13386;24.786;110.488;2023-04-24T07:49:19;10.90;;;4.57;;
22883;SDS011;13386;24.786;110.488;2023-04-24T07:51:49;13.20;;;5.15;;
22883;SDS011;13386;24.786;110.488;2023-04-24T07:54:20;12.25;;;4.45;;
22883;SDS011;13386;24.786;110.488;2023-04-24T07:56:56;13.10;;;4.63;;
22883;SDS011;13386;24.786;110.488;2023-04-24T07:59:33;14.90;;;4.60;;
22883;SDS011;13386;24.786;110.488;2023-04-24T08:02:03;11.20;;;4.38;;
22883;SDS011;13386;24.786;110.488;2023-04-24T08:04:36;12.10;;;4.55;;
22883;SDS011;13386;24.786;110.488;2023-04-24T08:07:06;11.30;;;5.07;;
22883;SDS011;13386;24.786;110.488;2023-04-24T08:09:36;13.18;;;5.18;;
22883;SDS011;13386;24.786;110.488;2023-04-24T08:12:06;11.60;;;4.70;;
22883;SDS011;13386;24.786;110.488;2023-04-24T08:14:39;13.10;;;4.97;;
22883;SDS011;13386;24.786;110.488;2023-04-24T08:17:10;11.20;;;4.60;;
22883;SDS011;13386;24.786;110.488;2023-04-24T08:19:42;11.57;;;4.32;;
22883;SDS011;13386;24.786;110.488;2023-04-24T08:22:15;11.30;;;4.80;;
22883;SDS011;13386;24.786;110.488;2023-04-24T08:24:45;13.80;;;4.78;;
22883;SDS011;13386;24.786;110.488;2023-04-24T08:27:15;14.32;;;4.53;;
22883;SDS011;13386;24.786;110.488;2023-04-24T08:29:47;13.20;;;4.88;;
22883;SDS011;13386;24.786;110.488;2023-04-24T08:32:19;12.32;;;5.20;;
22883;SDS011;13386;24.786;110.488;2023-04-24T08:34:54;14.95;;;5.40;;
22883;SDS011;13386;24.786;110.488;2023-04-24T08:37:25;14.13;;;5.60;;
22883;SDS011;13386;24.786;110.488;2023-04-24T08:39:56;11.93;;;5.45;;
22883;SDS011;13386;24.786;110.488;2023-04-24T08:42:26;11.75;;;5.30;;
22883;SDS011;13386;24.786;110.488;2023-04-24T08:45:01;15.88;;;5.25;;
22883;SDS011;13386;24.786;110.488;2023-04-24T08:47:31;15.07;;;5.00;;
22883;SDS011;13386;24.786;110.488;2023-04-24T08:50:04;15.25;;;5.60;;
22883;SDS011;13386;24.786;110.488;2023-04-24T08:52:35;13.65;;;5.05;;
22883;SDS011;13386;24.786;110.488;2023-04-24T08:55:06;14.40;;;5.63;;
22883;SDS011;13386;24.786;110.488;2023-04-24T08:57:36;13.38;;;5.40;;
22883;SDS011;13386;24.786;110.488;2023-04-24T09:00:10;13.65;;;5.50;;
22883;SDS011;13386;24.786;110.488;2023-04-24T09:02:41;16.02;;;5.90;;
22883;SDS011;13386;24.786;110.488;2023-04-24T09:05:14;12.80;;;5.07;;
22883;SDS011;13386;24.786;110.488;2023-04-24T09:07:52;12.80;;;5.65;;
22883;SDS011;13386;24.786;110.488;2023-04-24T09:10:23;13.65;;;5.32;;
22883;SDS011;13386;24.786;110.488;2023-04-24T09:12:54;13.32;;;5.85;;
22883;SDS011;13386;24.786;110.488;2023-04-24T09:15:28;16.63;;;5.85;;
22883;SDS011;13386;24.786;110.488;2023-04-24T09:17:59;18.60;;;6.13;;
22883;SDS011;13386;24.786;110.488;2023-04-24T09:20:31;17.27;;;6.40;;
22883;SDS011;13386;24.786;110.488;2023-04-24T09:23:03;15.85;;;6.00;;
22883;SDS011;13386;24.786;110.488;2023-04-24T09:25:33;17.40;;;6.00;;
22883;SDS011;13386;24.786;110.488;2023-04-24T09:28:04;19.60;;;6.00;;
22883;SDS011;13386;24.786;110.488;2023-04-24T09:30:35;18.02;;;5.90;;
22883;SDS011;13386;24.786;110.488;2023-04-24T09:33:10;17.58;;;6.15;;
22883;SDS011;13386;24.786;110.488;2023-04-24T09:35:42;20.13;;;6.13;;
22883;SDS011;13386;24.786;110.488;2023-04-24T09:38:12;14.07;;;6.03;;
22883;SDS011;13386;24.786;110.488;2023-04-24T09:40:43;16.73;;;6.00;;
22883;SDS011;13386;24.786;110.488;2023-04-24T09:43:14;18.60;;;5.43;;
22883;SDS011;13386;24.786;110.488;2023-04-24T09:45:45;13.77;;;5.50;;
22883;SDS011;13386;24.786;110.488;2023-04-24T09:48:15;17.75;;;5.75;;
22883;SDS011;13386;24.786;110.488;2023-04-24T09:50:48;13.85;;;5.60;;
22883;SDS011;13386;24.786;110.488;2023-04-24T09:53:18;15.13;;;5.63;;
22883;SDS011;13386;24.786;110.488;2023-04-24T09:55:53;15.18;;;6.00;;
22883;SDS011;13386;24.786;110.488;2023-04-24T09:58:26;12.85;;;5.38;;
22883;SDS011;13386;24.786;110.488;2023-04-24T10:00:59;14.70;;;6.07;;
22883;SDS011;13386;24.786;110.488;2023-04-24T10:03:29;13.98;;;6.03;;
22883;SDS011;13386;24.786;110.488;2023-04-24T10:06:01;17.38;;;6.30;;
22883;SDS011;13386;24.786;110.488;2023-04-24T10:08:35;15.30;;;6.40;;
22883;SDS011;13386;24.786;110.488;2023-04-24T10:11:06;19.40;;;7.25;;
22883;SDS011;13386;24.786;110.488;2023-04-24T10:13:37;19.40;;;6.68;;
22883;SDS011;13386;24.786;110.488;2023-04-24T10:16:10;212.57;;;29.00;;
22883;SDS011;13386;24.786;110.488;2023-04-24T10:18:40;147.55;;;23.83;;
22883;SDS011;13386;24.786;110.488;2023-04-24T10:21:12;14.75;;;5.97;;
22883;SDS011;13386;24.786;110.488;2023-04-24T10:23:42;14.93;;;6.55;;
22883;SDS011;13386;24.786;110.488;2023-04-24T10:26:13;21.52;;;7.40;;
22883;SDS011;13386;24.786;110.488;2023-04-24T10:28:45;19.40;;;6.70;;
22883;SDS011;13386;24.786;110.488;2023-04-24T10:31:15;15.60;;;6.13;;
22883;SDS011;13386;24.786;110.488;2023-04-24T10:33:45;17.58;;;6.60;;
22883;SDS011;13386;24.786;110.488;2023-04-24T10:36:18;14.70;;;6.20;;
22883;SDS011;13386;24.786;110.488;2023-04-24T10:38:51;18.88;;;6.75;;
22883;SDS011;13386;24.786;110.488;2023-04-24T10:41:22;16.30;;;6.53;;
22883;SDS011;13386;24.786;110.488;2023-04-24T10:44:04;15.20;;;6.57;;
22883;SDS011;13386;24.786;110.488;2023-04-24T10:46:35;15.43;;;5.80;;
22883;SDS011;13386;24.786;110.488;2023-04-24T10:49:05;14.73;;;6.13;;
22883;SDS011;13386;24.786;110.488;2023-04-24T10:51:48;14.73;;;6.43;;
22883;SDS011;13386;24.786;110.488;2023-04-24T10:54:25;14.48;;;6.03;;
22883;SDS011;13386;24.786;110.488;2023-04-24T10:59:41;15.02;;;6.10;;
22883;SDS011;13386;24.786;110.488;2023-04-24T11:02:13;16.30;;;6.30;;
22883;SDS011;13386;24.786;110.488;2023-04-24T11:04:44;19.92;;;6.70;;
22883;SDS011;13386;24.786;110.488;2023-04-24T11:07:16;14.40;;;6.30;;
22883;SDS011;13386;24.786;110.488;2023-04-24T11:09:46;17.83;;;6.28;;
22883;SDS011;13386;24.786;110.488;2023-04-24T11:12:16;15.80;;;6.45;;
22883;SDS011;13386;24.786;110.488;2023-04-24T11:15:01;13.35;;;5.75;;
22883;SDS011;13386;24.786;110.488;2023-04-24T11:17:33;17.48;;;6.07;;
22883;SDS011;13386;24.786;110.488;2023-04-24T11:20:08;25.63;;;6.70;;
22883;SDS011;13386;24.786;110.488;2023-04-24T11:22:40;16.70;;;6.43;;
22883;SDS011;13386;24.786;110.488;2023-04-24T11:25:10;19.75;;;7.10;;
22883;SDS011;13386;24.786;110.488;2023-04-24T11:27:42;17.05;;;6.43;;
22883;SDS011;13386;24.786;110.488;2023-04-24T11:30:16;17.35;;;6.72;;
22883;SDS011;13386;24.786;110.488;2023-04-24T11:32:47;18.67;;;6.50;;
22883;SDS011;13386;24.786;110.488;2023-04-24T11:35:18;17.88;;;5.82;;
22883;SDS011;13386;24.786;110.488;2023-04-24T11:37:56;19.38;;;6.60;;
22883;SDS011;13386;24.786;110.488;2023-04-24T11:40:29;18.88;;;7.07;;
22883;SDS011;13386;24.786;110.488;2023-04-24T11:42:59;16.80;;;6.43;;
22883;SDS011;13386;24.786;110.488;2023-04-24T11:45:30;16.75;;;6.63;;
22883;SDS011;13386;24.786;110.488;2023-04-24T11:48:00;19.85;;;7.70;;
22883;SDS011;13386;24.786;110.488;2023-04-24T11:50:32;21.38;;;7.55;;
22883;SDS011;13386;24.786;110.488;2023-04-24T11:53:08;21.75;;;7.43;;
22883;SDS011;13386;24.786;110.488;2023-04-24T11:55:40;17.33;;;6.65;;
22883;SDS011;13386;24.786;110.488;2023-04-24T11:58:11;16.52;;;6.80;;
22883;SDS011;13386;24.786;110.488;2023-04-24T12:00:43;19.08;;;6.90;;
22883;SDS011;13386;24.786;110.488;2023-04-24T12:03:19;19.00;;;7.57;;
22883;SDS011;13386;24.786;110.488;2023-04-24T12:05:49;20.52;;;7.78;;
22883;SDS011;13386;24.786;110.488;2023-04-24T12:08:29;20.13;;;7.47;;
22883;SDS011;13386;24.786;110.488;2023-04-24T12:11:00;18.05;;;7.20;;
22883;SDS011;13386;24.786;110.488;2023-04-24T12:13:35;20.10;;;7.72;;
22883;SDS011;13386;24.786;110.488;2023-04-24T12:16:08;19.63;;;7.82;;
22883;SDS011;13386;24.786;110.488;2023-04-24T12:18:43;16.90;;;6.23;;
22883;SDS011;13386;24.786;110.488;2023-04-24T12:21:17;19.65;;;7.10;;
22883;SDS011;13386;24.786;110.488;2023-04-24T12:23:49;20.30;;;7.55;;
22883;SDS011;13386;24.786;110.488;2023-04-24T12:26:19;19.55;;;7.25;;
22883;SDS011;13386;24.786;110.488;2023-04-24T12:28:50;17.73;;;6.72;;
22883;SDS011;13386;24.786;110.488;2023-04-24T12:31:22;17.75;;;6.85;;
22883;SDS011;13386;24.786;110.488;2023-04-24T12:33:55;18.98;;;6.60;;
22883;SDS011;13386;24.786;110.488;2023-04-24T12:36:28;16.27;;;7.10;;
22883;SDS011;13386;24.786;110.488;2023-04-24T12:39:03;17.17;;;7.13;;
22883;SDS011;13386;24.786;110.488;2023-04-24T12:41:54;18.42;;;7.25;;
22883;SDS011;13386;24.786;110.488;2023-04-24T12:46:55;17.40;;;6.90;;
22883;SDS011;13386;24.786;110.488;2023-04-24T12:49:29;18.42;;;6.88;;
22883;SDS011;13386;24.786;110.488;2023-04-24T12:51:59;15.05;;;6.30;;
22883;SDS011;13386;24.786;110.488;2023-04-24T12:54:34;18.13;;;7.03;;
22883;SDS011;13386;24.786;110.488;2023-04-24T12:57:04;15.95;;;6.55;;
22883;SDS011;13386;24.786;110.488;2023-04-24T12:59:38;15.10;;;6.40;;
22883;SDS011;13386;24.786;110.488;2023-04-24T13:02:08;16.05;;;6.80;;
22883;SDS011;13386;24.786;110.488;2023-04-24T13:04:47;18.15;;;7.00;;
22883;SDS011;13386;24.786;110.488;2023-04-24T13:07:19;20.35;;;7.18;;
22883;SDS011;13386;24.786;110.488;2023-04-24T13:09:51;15.82;;;7.07;;
22883;SDS011;13386;24.786;110.488;2023-04-24T13:12:22;17.00;;;6.60;;
22883;SDS011;13386;24.786;110.488;2023-04-24T13:14:52;17.40;;;7.20;;
22883;SDS011;13386;24.786;110.488;2023-04-24T13:17:23;19.33;;;7.28;;
22883;SDS011;13386;24.786;110.488;2023-04-24T13:19:54;16.10;;;6.93;;
22883;SDS011;13386;24.786;110.488;2023-04-24T13:22:24;16.90;;;7.13;;
22883;SDS011;13386;24.786;110.488;2023-04-24T13:24:59;19.95;;;7.10;;
22883;SDS011;13386;24.786;110.488;2023-04-24T13:27:31;16.17;;;6.78;;
22883;SDS011;13386;24.786;110.488;2023-04-24T13:30:01;16.10;;;6.50;;
22883;SDS011;13386;24.786;110.488;2023-04-24T13:32:36;18.20;;;7.35;;
22883;SDS011;13386;24.786;110.488;2023-04-24T13:35:07;17.27;;;6.70;;
22883;SDS011;13386;24.786;110.488;2023-04-24T13:37:37;16.95;;;7.13;;
22883;SDS011;13386;24.786;110.488;2023-04-24T13:40:14;18.02;;;7.03;;
22883;SDS011;13386;24.786;110.488;2023-04-24T13:42:45;16.67;;;6.85;;
22883;SDS011;13386;24.786;110.488;2023-04-24T13:45:19;16.27;;;7.13;;
22883;SDS011;13386;24.786;110.488;2023-04-24T13:47:51;17.45;;;7.05;;
22883;SDS011;13386;24.786;110.488;2023-04-24T13:50:26;17.30;;;6.72;;
22883;SDS011;13386;24.786;110.488;2023-04-24T13:52:58;18.02;;;7.47;;
22883;SDS011;13386;24.786;110.488;2023-04-24T13:55:32;19.98;;;7.65;;
22883;SDS011;13386;24.786;110.488;2023-04-24T13:58:04;15.23;;;6.82;;
22883;SDS011;13386;24.786;110.488;2023-04-24T14:00:35;18.50;;;6.90;;
22883;SDS011;13386;24.786;110.488;2023-04-24T14:03:05;14.63;;;6.47;;
22883;SDS011;13386;24.786;110.488;2023-04-24T14:05:35;18.40;;;6.60;;
22883;SDS011;13386;24.786;110.488;2023-04-24T14:08:08;17.98;;;7.07;;
22883;SDS011;13386;24.786;110.488;2023-04-24T14:10:40;17.88;;;7.10;;
22883;SDS011;13386;24.786;110.488;2023-04-24T14:13:10;22.00;;;8.25;;
22883;SDS011;13386;24.786;110.488;2023-04-24T14:15:43;20.42;;;7.50;;
22883;SDS011;13386;24.786;110.488;2023-04-24T14:18:14;16.20;;;6.53;;
22883;SDS011;13386;24.786;110.488;2023-04-24T14:20:48;18.83;;;7.55;;
22883;SDS011;13386;24.786;110.488;2023-04-24T14:25:57;18.13;;;7.47;;
22883;SDS011;13386;24.786;110.488;2023-04-24T14:28:27;23.05;;;8.63;;
22883;SDS011;13386;24.786;110.488;2023-04-24T14:31:00;21.35;;;7.75;;
22883;SDS011;13386;24.786;110.488;2023-04-24T14:33:39;18.20;;;7.28;;
22883;SDS011;13386;24.786;110.488;2023-04-24T14:36:10;21.33;;;7.88;;
22883;SDS011;13386;24.786;110.488;2023-04-24T14:38:43;23.30;;;8.65;;
22883;SDS011;13386;24.786;110.488;2023-04-24T14:41:16;20.90;;;8.05;;
22883;SDS011;13386;24.786;110.488;2023-04-24T14:43:46;20.52;;;8.05;;
22883;SDS011;13386;24.786;110.488;2023-04-24T14:46:18;19.40;;;7.85;;
22883;SDS011;13386;24.786;110.488;2023-04-24T14:48:51;20.33;;;7.95;;
22883;SDS011;13386;24.786;110.488;2023-04-24T14:51:22;21.77;;;8.52;;